Time;durP1;ratioP1;P1;durP2;ratioP2;P2;SDS_P1;SDS_P2;PMS_P1;PMS_P2;Temp;Humidity;BMP_temperature;BMP_pressure;BME280_temperature;BME280_humidity;BME280_pressure;Samples;Min_cycle;Max_cycle;Signal;HPM_P1;HPM_P2
2023/03/11 00:02:18;;;;;;;5.90;1.85;;;;;;;19.97;48.43;94404.56;10457042;28;20067;-74
2023/03/11 00:07:38;;;;;;;4.78;1.98;;;;;;;19.95;48.37;94412.28;10456820;28;20048;-75
2023/03/11 00:12:59;;;;;;;5.70;1.70;;;;;;;19.94;48.26;94446.63;10471575;28;20045;-74
2023/03/11 00:18:19;;;;;;;6.38;2.10;;;;;;;19.95;48.34;94491.44;10442187;28;20041;-74
2023/03/11 00:23:38;;;;;;;5.15;1.80;;;;;;;19.92;48.33;94513.81;10456003;28;20041;-74
2023/03/11 00:28:57;;;;;;;5.00;1.70;;;;;;;19.90;48.32;94529.63;10470897;28;20106;-74
2023/03/11 00:34:17;;;;;;;4.40;1.50;;;;;;;19.90;48.15;94551.25;10455618;28;20102;-74
2023/03/11 00:39:36;;;;;;;4.50;1.80;;;;;;;19.88;48.08;94577.88;10470496;28;20472;-74
2023/03/11 00:44:56;;;;;;;5.55;1.60;;;;;;;19.89;48.01;94567.81;10455403;28;20447;-74
2023/03/11 00:50:19;;;;;;;4.57;1.80;;;;;;;19.86;47.96;94599.09;10452617;28;20060;-74
2023/03/11 00:55:39;;;;;;;4.85;1.70;;;;;;;19.86;47.98;94612.59;10441047;28;20091;-74
2023/03/11 01:01:09;;;;;;;4.32;1.42;;;;;;;19.85;47.98;94608.34;10440554;28;20447;-74
2023/03/11 01:06:29;;;;;;;3.75;1.40;;;;;;;19.83;47.89;94607.94;10440706;28;20048;-74
2023/03/11 01:11:48;;;;;;;4.10;1.40;;;;;;;19.82;47.81;94611.81;10426667;28;20481;-74
2023/03/11 01:17:08;;;;;;;4.22;1.50;;;;;;;19.80;47.86;94624.13;10440425;28;20095;-74
2023/03/11 01:22:28;;;;;;;3.45;1.30;;;;;;;19.81;47.87;94631.09;10454447;28;20041;-74
2023/03/11 01:27:48;;;;;;;3.08;1.40;;;;;;;19.78;47.65;94635.34;10454281;28;20477;-74
2023/03/11 01:33:13;;;;;;;2.97;1.20;;;;;;;19.77;47.84;94631.06;10440211;28;20044;-75
2023/03/11 01:38:33;;;;;;;2.72;1.23;;;;;;;19.75;47.69;94634.16;10440023;28;20041;-75
2023/03/11 01:43:53;;;;;;;2.45;1.17;;;;;;;19.74;47.55;94642.66;10468959;28;20045;-75
2023/03/11 01:49:25;;;;;;;2.00;0.90;;;;;;;19.73;47.51;94657.28;10441242;28;20049;-75
2023/03/11 01:54:45;;;;;;;2.92;1.08;;;;;;;19.71;47.57;94652.25;10468811;28;20477;-74
2023/03/11 02:00:09;;;;;;;3.50;1.35;;;;;;;19.70;47.57;94664.22;10453538;28;20045;-74
2023/03/11 02:05:35;;;;;;;4.22;1.38;;;;;;;19.68;47.72;94666.50;10440474;28;20045;-75
2023/03/11 02:10:55;;;;;;;2.58;1.20;;;;;;;19.68;47.57;94666.50;10453605;28;20052;-74
2023/03/11 02:16:15;;;;;;;2.70;1.15;;;;;;;19.68;47.48;94692.72;10476063;28;20055;-75
2023/03/11 02:21:36;;;;;;;3.72;1.20;;;;;;;19.66;47.53;94689.63;10433221;28;20044;-74
2023/03/11 02:27:02;;;;;;;3.20;1.55;;;;;;;19.64;47.48;94713.53;10460664;28;20045;-74
2023/03/11 02:32:23;;;;;;;2.17;1.17;;;;;;;19.62;47.51;94715.84;10460475;28;20052;-74
2023/03/11 02:37:48;;;;;;;2.40;1.20;;;;;;;19.63;47.13;94726.28;10446226;28;20151;-75
2023/03/11 02:43:13;;;;;;;3.65;1.10;;;;;;;19.60;47.28;94724.34;10432281;28;20112;-75
2023/03/11 02:48:34;;;;;;;2.90;1.27;;;;;;;19.60;47.42;94734.34;10445968;28;20048;-75
2023/03/11 02:53:58;;;;;;;2.53;1.20;;;;;;;19.59;47.39;94740.91;10433175;28;20052;-74
2023/03/11 02:59:19;;;;;;;2.15;0.80;;;;;;;19.57;47.36;94746.69;10445589;28;20392;-75
2023/03/11 03:04:39;;;;;;;2.42;0.93;;;;;;;19.55;47.31;94765.19;10445316;28;20067;-75
2023/03/11 03:09:59;;;;;;;2.35;1.05;;;;;;;19.53;47.19;94768.25;10459162;28;20049;-74
2023/03/11 03:15:19;;;;;;;2.33;0.95;;;;;;;19.52;47.33;94777.53;10458843;28;20475;-74
2023/03/11 03:20:39;;;;;;;1.92;1.00;;;;;;;19.51;47.25;94784.06;10458559;28;20045;-74
2023/03/11 03:25:58;;;;;;;2.80;1.00;;;;;;;19.50;47.14;94774.41;10443781;28;20048;-75
2023/03/11 03:31:18;;;;;;;1.92;0.88;;;;;;;19.49;47.28;94791.75;10458207;28;20053;-74
2023/03/11 03:36:37;;;;;;;3.65;1.00;;;;;;;19.46;47.21;94800.59;10457977;28;20041;-75
2023/03/11 03:41:58;;;;;;;1.73;0.98;;;;;;;19.45;47.19;94809.84;10457607;28;20102;-74
2023/03/11 03:47:22;;;;;;;1.58;0.93;;;;;;;19.45;47.15;94809.84;10457466;28;20386;-74
2023/03/11 03:52:42;;;;;;;1.20;0.77;;;;;;;19.44;47.05;94815.63;10463026;28;20053;-74
2023/03/11 03:58:02;;;;;;;2.05;1.00;;;;;;;19.42;47.02;94842.97;10457025;28;20037;-74
2023/03/11 04:03:26;;;;;;;1.58;0.70;;;;;;;19.40;47.00;94842.56;10443566;28;20067;-74
2023/03/11 04:08:51;;;;;;;1.50;0.80;;;;;;;19.40;47.08;94844.50;10443453;28;20045;-74
2023/03/11 04:14:12;;;;;;;1.58;1.00;;;;;;;19.39;46.91;94867.28;10442557;28;20087;-74
2023/03/11 04:19:37;;;;;;;2.08;0.90;;;;;;;19.37;46.98;94873.03;10456323;28;20045;-74
2023/03/11 04:24:57;;;;;;;2.38;0.90;;;;;;;19.35;47.01;94872.63;10456017;28;20047;-74
2023/03/11 04:30:17;;;;;;;1.90;0.88;;;;;;;19.34;47.03;94882.63;10442039;28;20052;-74
2023/03/11 04:35:39;;;;;;;2.35;0.90;;;;;;;19.32;47.04;94892.25;10455681;28;20052;-74
2023/03/11 04:41:04;;;;;;;2.15;0.80;;;;;;;19.31;46.88;94902.28;10455427;28;20489;-74
2023/03/11 04:46:23;;;;;;;1.05;0.70;;;;;;;19.29;46.78;94893.78;10441364;28;20048;-74
2023/03/11 04:51:43;;;;;;;1.75;0.73;;;;;;;19.30;46.87;94910.75;10434571;28;20566;-74
2023/03/11 04:57:05;;;;;;;1.20;0.65;;;;;;;19.28;46.88;94918.44;10455005;28;20041;-74
2023/03/11 05:02:25;;;;;;;1.10;0.70;;;;;;;19.26;46.86;94931.53;10454792;28;20041;-74
2023/03/11 05:07:50;;;;;;;2.03;0.68;;;;;;;19.25;46.95;94946.16;10454684;28;20056;-75
2023/03/11 05:13:10;;;;;;;1.10;0.80;;;;;;;19.24;46.97;94960.81;10441927;28;20064;-74
2023/03/11 05:18:31;;;;;;;1.20;0.70;;;;;;;19.22;46.83;94973.91;10475659;28;20033;-74
2023/03/11 05:23:51;;;;;;;1.05;0.60;;;;;;;19.20;46.83;94985.06;10461580;28;20091;-75
2023/03/11 05:29:11;;;;;;;1.00;0.60;;;;;;;19.19;46.69;94999.72;10472738;28;20075;-74
2023/03/11 05:34:31;;;;;;;1.17;0.70;;;;;;;19.19;46.81;95012.41;10475234;28;20040;-74
2023/03/11 05:39:51;;;;;;;1.63;0.60;;;;;;;19.16;46.64;95020.09;10450980;28;20040;-74
2023/03/11 05:45:11;;;;;;;3.17;0.80;;;;;;;19.17;46.89;95026.28;10440327;28;20412;-74
2023/03/11 05:50:33;;;;;;;1.23;0.55;;;;;;;19.14;46.84;95043.19;10472317;28;20061;-74
2023/03/11 05:55:57;;;;;;;1.02;0.60;;;;;;;19.11;45.47;95060.09;10461994;28;20048;-74
2023/03/11 06:01:19;;;;;;;1.17;0.60;;;;;;;19.11;46.82;95070.91;10461863;28;20048;-74
2023/03/11 06:06:40;;;;;;;1.17;0.60;;;;;;;19.11;46.85;95097.91;10447760;28;20041;-74
2023/03/11 06:12:00;;;;;;;1.27;0.50;;;;;;;19.09;46.91;95095.59;10447628;28;20049;-74
2023/03/11 06:17:29;;;;;;;1.00;0.57;;;;;;;19.08;46.90;95115.59;10475001;28;20499;-74
2023/03/11 06:22:48;;;;;;;0.80;0.50;;;;;;;19.09;47.07;95125.28;10474909;28;20041;-74
2023/03/11 06:28:08;;;;;;;2.03;0.70;;;;;;;19.08;47.36;95148.00;10446716;28;20041;-74
2023/03/11 06:33:29;;;;;;;0.50;0.40;;;;;;;19.09;47.17;95168.47;10466910;28;20538;-74
2023/03/11 06:38:51;;;;;;;1.05;0.60;;;;;;;19.09;47.23;95189.25;10493039;28;20491;-76
2023/03/11 06:44:12;;;;;;;2.58;1.40;;;;;;;19.08;47.29;95201.97;10477900;28;20044;-74
2023/03/11 06:49:33;;;;;;;0.88;0.50;;;;;;;19.06;47.29;95219.66;10452993;28;20041;-74
2023/03/11 06:54:53;;;;;;;1.15;0.52;;;;;;;19.06;47.43;95223.16;10431802;28;20040;-74
2023/03/11 07:00:14;;;;;;;0.93;0.50;;;;;;;19.05;47.27;95216.19;10441430;28;20048;-74
2023/03/11 07:05:39;;;;;;;0.90;0.43;;;;;;;19.06;47.15;95255.53;10456328;28;20094;-74
2023/03/11 07:11:19;;;;;;;2.65;0.60;;;;;;;19.06;47.18;95258.22;10457542;28;20048;-74
2023/03/11 07:16:41;;;;;;;1.70;0.50;;;;;;;19.07;47.20;95280.59;10431732;28;20048;-74
2023/03/11 07:22:09;;;;;;;0.90;0.50;;;;;;;19.08;47.27;95282.16;10458522;28;20052;-74
2023/03/11 07:27:28;;;;;;;0.60;0.43;;;;;;;19.09;47.02;95289.91;10459704;28;20401;-75
2023/03/11 07:32:47;;;;;;;0.68;0.47;;;;;;;19.10;47.18;95310.34;10473244;28;20041;-75
2023/03/11 07:38:07;;;;;;;1.65;0.40;;;;;;;19.11;47.45;95311.94;10444334;28;20064;-74
2023/03/11 07:43:27;;;;;;;0.73;0.50;;;;;;;19.13;47.43;95319.66;10457814;28;20424;-74
2023/03/11 07:48:47;;;;;;;2.63;0.60;;;;;;;19.16;47.64;95333.22;10458240;28;20495;-74
2023/03/11 07:54:07;;;;;;;0.85;0.40;;;;;;;19.19;47.56;95345.25;10444144;28;20060;-75
2023/03/11 07:59:26;;;;;;;2.28;0.50;;;;;;;19.21;47.57;95356.47;10443137;28;20041;-74
2023/03/11 08:04:45;;;;;;;2.60;0.40;;;;;;;19.24;47.55;95377.34;10456986;28;20049;-75
2023/03/11 08:10:05;;;;;;;1.27;0.60;;;;;;;19.22;46.11;95387.72;10456355;28;20489;-74
2023/03/11 08:15:25;;;;;;;2.33;0.43;;;;;;;19.26;46.55;95393.97;10471570;28;20041;-74
2023/03/11 08:20:45;;;;;;;3.20;0.60;;;;;;;19.29;46.66;95409.47;10456202;28;20049;-74
2023/03/11 08:26:06;;;;;;;1.42;0.60;;;;;;;19.34;46.75;95413.78;10470615;28;20048;-73
2023/03/11 08:31:28;;;;;;;2.83;0.45;;;;;;;19.39;46.39;95416.22;10441801;28;20049;-73
2023/03/11 08:36:47;;;;;;;37.90;25.23;;;;;;;19.42;46.47;95404.69;10441766;28;20041;-73
2023/03/11 08:42:07;;;;;;;19.55;13.55;;;;;;;19.46;46.41;95437.94;10455485;28;20041;-73
2023/03/11 08:47:27;;;;;;;16.85;11.10;;;;;;;19.50;46.47;95438.81;10470415;28;20037;-73
2023/03/11 08:52:47;;;;;;;15.20;9.98;;;;;;;19.53;46.27;95458.91;10445658;28;20541;-73
2023/03/11 08:58:06;;;;;;;12.25;8.95;;;;;;;19.58;46.11;95461.31;10469998;28;20045;-72
2023/03/11 09:03:26;;;;;;;11.15;7.70;;;;;;;19.61;45.91;95473.34;10454900;28;20443;-73
2023/03/11 09:08:47;;;;;;;10.70;7.47;;;;;;;19.63;45.78;95496.16;10469735;28;20049;-73
2023/03/11 09:14:06;;;;;;;12.02;8.32;;;;;;;19.68;46.05;95503.19;10454460;28;20497;-73
2023/03/11 09:19:26;;;;;;;23.30;20.83;;;;;;;19.71;46.81;95510.59;10454349;28;20045;-73
2023/03/11 09:24:45;;;;;;;13.27;9.52;;;;;;;19.75;46.71;95524.97;10468665;28;20508;-74
2023/03/11 09:30:06;;;;;;;12.30;8.50;;;;;;;19.80;46.94;95537.41;10454191;28;20045;-74
2023/03/11 09:35:26;;;;;;;9.23;6.70;;;;;;;19.85;48.40;95529.81;10440091;28;20037;-73
2023/03/11 09:41:01;;;;;;;89.40;32.05;;;;;;;19.90;48.37;95542.28;10453888;28;20099;-74
2023/03/11 09:46:39;;;;;;;87.82;29.67;;;;;;;19.93;49.64;95558.56;10453931;28;20048;-74
2023/03/11 09:52:08;;;;;;;73.00;25.73;;;;;;;19.98;50.95;95570.22;10459893;28;20053;-73
2023/03/11 09:57:31;;;;;;;72.88;24.80;;;;;;;20.02;50.53;95568.38;10439765;28;20040;-73
2023/03/11 10:02:50;;;;;;;63.42;22.92;;;;;;;20.05;50.34;95576.56;10453574;28;20043;-73
2023/03/11 10:08:41;;;;;;;62.58;23.50;;;;;;;20.08;51.52;95591.28;10453510;28;20067;-73
2023/03/11 10:14:19;;;;;;;62.03;22.42;;;;;;;20.11;50.49;95595.94;10428271;28;20061;-73
2023/03/11 10:20:16;;;;;;;55.92;20.95;;;;;;;20.13;51.32;95607.19;10468395;28;20040;-73
2023/03/11 10:26:15;;;;;;;56.22;20.92;;;;;;;20.16;51.05;95620.00;10453336;28;20045;-73
2023/03/11 10:32:13;;;;;;;54.75;19.85;;;;;;;20.21;51.97;95640.56;10425040;28;20115;-73
2023/03/11 10:37:38;;;;;;;43.67;18.02;;;;;;;20.20;52.66;95639.78;10475358;28;20477;-74
2023/03/11 10:43:04;;;;;;;43.75;17.98;;;;;;;20.23;52.18;95647.19;10475174;28;20102;-74
2023/03/11 10:48:24;;;;;;;41.72;17.90;;;;;;;20.26;52.13;95661.91;10445865;28;20052;-74
2023/03/11 10:53:58;;;;;;;45.75;17.80;;;;;;;20.27;53.45;95664.28;10447785;28;20049;-75
2023/03/11 10:59:28;;;;;;;42.22;18.10;;;;;;;20.30;54.44;95658.13;10473528;28;20048;-75
2023/03/11 11:04:48;;;;;;;16.80;7.57;;;;;;;19.71;44.08;95664.59;10431703;28;20049;-75
2023/03/11 11:10:11;;;;;;;23.15;11.55;;;;;;;19.97;51.55;95676.78;10445349;28;20153;-74
2023/03/11 11:15:36;;;;;;;29.02;12.75;;;;;;;20.12;54.24;95687.53;10473831;28;20064;-75
2023/03/11 11:21:06;;;;;;;11.98;6.15;;;;;;;19.48;41.36;95689.59;10458489;28;20052;-75
2023/03/11 11:26:26;;;;;;;12.52;7.20;;;;;;;19.61;48.31;95690.25;10458567;28;20459;-75
2023/03/11 11:31:46;;;;;;;18.95;9.00;;;;;;;19.87;49.88;95692.41;10458258;28;20481;-75
2023/03/11 11:37:10;;;;;;;21.63;8.15;;;;;;;20.02;50.24;95692.72;10458070;28;20481;-73
2023/03/11 11:42:30;;;;;;;17.30;8.43;;;;;;;20.10;51.85;95697.13;10443812;28;20049;-75
2023/03/11 11:47:53;;;;;;;20.77;9.23;;;;;;;20.16;51.95;95706.53;10472133;28;20053;-75
2023/03/11 11:53:36;;;;;;;20.30;9.90;;;;;;;20.22;52.92;95710.53;10432948;28;20076;-75
2023/03/11 11:58:56;;;;;;;20.73;9.82;;;;;;;20.26;53.17;95700.56;10443246;28;20052;-75
2023/03/11 12:04:23;;;;;;;17.95;8.90;;;;;;;20.29;54.08;95699.09;10472050;28;20408;-75
2023/03/11 12:10:01;;;;;;;8.35;4.53;;;;;;;19.92;40.50;95718.38;10460170;28;20056;-73
2023/03/11 12:15:27;;;;;;;6.23;3.67;;;;;;;19.78;40.43;95718.84;10513415;28;20043;-74
2023/03/11 12:20:51;;;;;;;2.70;2.05;;;;;;;19.30;32.17;95728.88;10497674;28;20093;-74
2023/03/11 12:26:14;;;;;;;4.22;2.17;;;;;;;19.34;37.47;95732.44;10469590;28;20072;-74
2023/03/11 12:31:39;;;;;;;4.97;2.30;;;;;;;19.59;40.05;95727.63;10507363;28;20048;-74
2023/03/11 12:37:02;;;;;;;2.33;1.60;;;;;;;19.71;40.79;95757.28;10483161;28;20056;-75
2023/03/11 12:42:24;;;;;;;5.45;2.40;;;;;;;19.79;41.40;95741.25;10483183;28;20044;-75
2023/03/11 12:47:43;;;;;;;4.97;2.40;;;;;;;19.85;42.11;95747.94;10497134;28;20049;-75
2023/03/11 12:53:03;;;;;;;3.72;2.42;;;;;;;19.87;42.76;95749.16;10486504;28;20052;-74
2023/03/11 12:58:40;;;;;;;6.18;2.30;;;;;;;19.89;43.40;95763.09;10495652;28;20043;-75
2023/03/11 13:04:24;;;;;;;5.70;2.22;;;;;;;19.91;44.48;95770.88;10511579;28;20070;-77
2023/03/11 13:09:43;;;;;;;4.25;2.25;;;;;;;19.90;43.18;95778.19;10482094;28;20101;-74
2023/03/11 13:15:18;;;;;;;4.70;2.40;;;;;;;19.90;44.23;95780.91;10481960;28;20055;-75
2023/03/11 13:20:40;;;;;;;3.35;2.10;;;;;;;19.90;44.52;95791.72;10510715;28;20037;-74
2023/03/11 13:26:15;;;;;;;5.20;2.33;;;;;;;19.91;45.05;95793.25;10510705;28;20040;-75
2023/03/11 13:32:01;;;;;;;3.92;2.10;;;;;;;19.91;45.18;95790.56;10510772;28;20045;-75
2023/03/11 13:37:44;;;;;;;3.78;2.45;;;;;;;19.91;45.78;95798.66;10510618;28;20480;-75
2023/03/11 13:43:14;;;;;;;4.88;2.65;;;;;;;19.91;45.93;95800.59;10495483;28;20052;-75
2023/03/11 13:48:41;;;;;;;5.53;2.80;;;;;;;19.91;46.12;95812.19;10495498;28;20040;-74
2023/03/11 13:54:05;;;;;;;6.03;2.80;;;;;;;19.91;46.44;95820.28;10468515;28;20098;-74
2023/03/11 13:59:32;;;;;;;10.40;2.80;;;;;;;19.91;46.80;95808.69;10495205;28;20045;-73
2023/03/11 14:05:05;;;;;;;6.68;3.00;;;;;;;19.92;47.15;95824.56;10473059;28;20041;-74
2023/03/11 14:10:28;;;;;;;6.15;2.78;;;;;;;19.91;47.30;95831.09;10459340;28;20049;-74
2023/03/11 14:16:06;;;;;;;6.57;2.58;;;;;;;19.92;47.71;95831.91;10447517;28;20037;-74
2023/03/11 14:21:27;;;;;;;6.90;3.05;;;;;;;19.91;47.49;95852.72;10476077;28;20048;-74
2023/03/11 14:26:47;;;;;;;9.55;3.42;;;;;;;19.90;47.61;95851.16;10460897;28;20041;-74
2023/03/11 14:32:28;;;;;;;7.45;2.85;;;;;;;19.90;46.82;95861.22;10469492;28;20400;-73
2023/03/11 14:37:47;;;;;;;7.47;2.92;;;;;;;19.87;46.93;95862.66;10451745;28;20037;-74
2023/03/11 14:43:10;;;;;;;8.40;2.97;;;;;;;19.87;47.38;95861.91;10488254;28;20498;-74
2023/03/11 14:48:38;;;;;;;10.52;3.20;;;;;;;19.86;47.83;95873.84;10516664;28;20481;-75
2023/03/11 14:54:17;;;;;;;8.97;3.20;;;;;;;19.86;47.70;95895.47;10488566;28;20052;-74
2023/03/11 14:59:37;;;;;;;10.57;3.30;;;;;;;19.86;47.75;95895.47;10500930;28;20044;-74
2023/03/11 15:05:02;;;;;;;9.25;3.17;;;;;;;19.85;47.95;95897.38;10500928;28;20066;-73
2023/03/11 15:10:21;;;;;;;7.57;2.90;;;;;;;19.86;48.23;95909.78;10486415;28;20040;-74
2023/03/11 15:15:41;;;;;;;7.95;3.40;;;;;;;19.84;48.42;95912.03;10515493;28;20041;-74
2023/03/11 15:21:17;;;;;;;10.05;3.55;;;;;;;19.84;48.92;95917.44;10515091;28;20045;-74
2023/03/11 15:26:39;;;;;;;8.07;3.25;;;;;;;19.85;49.13;95929.81;10500035;28;20044;-76
2023/03/11 15:31:59;;;;;;;8.45;3.03;;;;;;;19.83;48.91;95931.28;10485968;28;20052;-77
2023/03/11 15:37:20;;;;;;;6.72;2.70;;;;;;;19.82;48.60;95933.22;10486226;28;20480;-76
2023/03/11 15:42:39;;;;;;;7.60;2.70;;;;;;;19.80;48.71;95932.78;10485432;28;20056;-75
2023/03/11 15:47:58;;;;;;;6.55;2.55;;;;;;;19.80;48.50;95942.78;10499143;28;20048;-75
2023/03/11 15:53:18;;;;;;;5.63;2.60;;;;;;;19.78;48.45;95962.06;10474013;28;20052;-75
2023/03/11 15:58:38;;;;;;;4.93;2.70;;;;;;;19.77;48.58;95965.13;10484714;28;20052;-74
2023/03/11 16:03:58;;;;;;;5.60;2.25;;;;;;;19.74;48.52;95972.78;10484424;28;20033;-74
2023/03/11 16:09:17;;;;;;;5.47;2.25;;;;;;;19.73;48.60;95981.22;10513494;28;20040;-75
2023/03/11 16:14:36;;;;;;;4.93;2.35;;;;;;;19.72;48.48;95982.38;10498140;28;20036;-74
2023/03/11 16:19:56;;;;;;;3.67;2.00;;;;;;;19.71;48.61;95991.56;10483956;28;20047;-75
2023/03/11 16:25:25;;;;;;;4.57;2.53;;;;;;;19.71;48.32;96000.47;10512796;28;20047;-75
2023/03/11 16:30:45;;;;;;;5.80;2.30;;;;;;;19.69;48.52;96001.94;10497239;28;20044;-73
2023/03/11 16:36:05;;;;;;;4.88;1.80;;;;;;;19.69;47.84;96007.34;10512475;28;20048;-74
2023/03/11 16:41:25;;;;;;;3.85;1.98;;;;;;;19.68;47.96;96021.97;10512154;28;20053;-74
2023/03/11 16:46:44;;;;;;;4.22;1.85;;;;;;;19.67;48.13;96028.50;10512192;28;20040;-75
2023/03/11 16:52:04;;;;;;;4.43;1.83;;;;;;;19.66;48.48;96041.25;10475133;28;20059;-75
2023/03/11 16:57:24;;;;;;;5.05;1.85;;;;;;;19.67;48.50;96060.94;10496604;28;20507;-75
2023/03/11 17:02:43;;;;;;;4.00;1.55;;;;;;;19.66;48.41;96062.06;10496367;28;20040;-75
2023/03/11 17:08:03;;;;;;;4.53;1.83;;;;;;;19.65;48.34;96076.72;10482224;28;20041;-75
2023/03/11 17:13:23;;;;;;;4.00;1.67;;;;;;;19.64;48.97;96080.53;10468086;28;20051;-75
2023/03/11 17:18:42;;;;;;;7.97;1.83;;;;;;;19.64;49.18;96088.63;10511027;28;20040;-74
2023/03/11 17:24:01;;;;;;;4.05;1.80;;;;;;;19.63;48.92;96100.59;10495787;28;20090;-74
2023/03/11 17:29:21;;;;;;;3.75;2.45;;;;;;;19.60;47.78;96102.06;10495720;28;20040;-74
2023/03/11 17:34:40;;;;;;;4.18;1.83;;;;;;;19.57;47.96;96100.03;10495668;28;20095;-73
2023/03/11 17:40:00;;;;;;;3.80;2.42;;;;;;;19.53;46.44;96112.66;10510483;28;20044;-74
2023/03/11 17:45:19;;;;;;;5.07;2.97;;;;;;;19.33;38.80;96117.84;10501183;28;20045;-74
2023/03/11 17:50:39;;;;;;;3.35;2.88;;;;;;;18.22;29.64;96127.66;10486150;28;20059;-74
2023/03/11 17:55:59;;;;;;;2.50;2.28;;;;;;;18.32;37.57;96132.63;10487790;28;20044;-73
2023/03/11 18:01:23;;;;;;;3.15;2.00;;;;;;;18.68;39.67;96144.66;10501119;28;20102;-73
2023/03/11 18:06:43;;;;;;;2.83;1.88;;;;;;;18.89;40.36;96155.38;10487242;28;20053;-72
2023/03/11 18:12:03;;;;;;;1.80;1.55;;;;;;;19.02;40.93;96164.31;10518059;28;20044;-72
2023/03/11 18:17:23;;;;;;;3.13;1.90;;;;;;;19.08;41.08;96165.66;10502290;28;20052;-73
2023/03/11 18:22:44;;;;;;;1.70;1.60;;;;;;;19.12;41.45;96163.84;10516910;28;20041;-73
2023/03/11 18:28:03;;;;;;;1.80;1.70;;;;;;;19.14;41.65;96171.63;10502753;28;20041;-73
2023/03/11 18:33:23;;;;;;;5.72;1.83;;;;;;;19.17;41.59;96184.47;10502278;28;20044;-73
2023/03/11 18:38:43;;;;;;;2.00;1.63;;;;;;;19.16;42.17;96180.94;10488297;28;20037;-73
2023/03/11 18:44:03;;;;;;;1.55;1.45;;;;;;;19.17;42.22;96187.94;10501887;28;20041;-73
2023/03/11 18:49:23;;;;;;;2.22;1.45;;;;;;;19.19;42.71;96187.63;10516777;28;20060;-73
2023/03/11 18:54:43;;;;;;;2.58;1.38;;;;;;;19.20;42.98;96193.78;10501624;28;20033;-73
2023/03/11 19:00:03;;;;;;;1.65;1.50;;;;;;;19.22;43.08;96200.44;10501283;28;20044;-73
2023/03/11 19:05:23;;;;;;;1.70;1.33;;;;;;;19.22;43.25;96189.63;10501261;28;20045;-73
2023/03/11 19:10:42;;;;;;;1.75;1.27;;;;;;;19.24;43.42;96197.41;10516362;28;20052;-73
2023/03/11 19:16:03;;;;;;;1.40;1.30;;;;;;;19.26;43.66;96198.63;10500729;28;20063;-73
2023/03/11 19:21:24;;;;;;;2.00;1.48;;;;;;;19.29;43.64;96199.88;10472618;28;20040;-73
2023/03/11 19:26:44;;;;;;;1.65;1.23;;;;;;;19.30;44.02;96213.03;10500021;28;20041;-72
2023/03/11 19:32:03;;;;;;;3.15;1.25;;;;;;;19.34;44.12;96207.75;10499789;28;20045;-72
2023/03/11 19:37:23;;;;;;;2.13;1.40;;;;;;;19.35;44.34;96203.94;10499565;28;20041;-73
2023/03/11 19:42:43;;;;;;;1.50;1.40;;;;;;;19.39;44.34;96215.63;10514995;28;20094;-73
2023/03/11 19:48:02;;;;;;;3.08;1.33;;;;;;;19.42;44.55;96220.34;10499602;28;20102;-74
2023/03/11 19:53:22;;;;;;;1.80;1.50;;;;;;;19.45;44.56;96225.09;10503309;28;20048;-73
2023/03/11 19:58:41;;;;;;;1.85;1.40;;;;;;;19.48;44.73;96229.84;10485331;28;20041;-73
2023/03/11 20:04:01;;;;;;;1.20;1.10;;;;;;;19.51;44.65;96225.66;10498826;28;20044;-73
2023/03/11 20:09:21;;;;;;;1.48;1.30;;;;;;;19.52;44.69;96225.34;10497964;28;20044;-73
2023/03/11 20:14:41;;;;;;;1.45;1.15;;;;;;;19.55;44.90;96235.44;10471388;28;20037;-73
2023/03/11 20:20:00;;;;;;;2.50;1.35;;;;;;;19.58;44.98;96244.00;10497848;28;20036;-72
2023/03/11 20:25:20;;;;;;;2.10;1.38;;;;;;;19.59;45.16;96242.88;10483526;28;20048;-74
2023/03/11 20:30:40;;;;;;;2.10;1.30;;;;;;;19.60;45.22;96239.84;10483391;28;20062;-75
2023/03/11 20:36:07;;;;;;;2.30;1.20;;;;;;;19.61;45.29;96257.63;10469399;28;20404;-74
2023/03/11 20:41:27;;;;;;;2.08;1.30;;;;;;;19.63;45.54;96254.59;10468997;28;20064;-74
2023/03/11 20:46:48;;;;;;;2.80;1.23;;;;;;;19.64;45.46;96254.28;10496931;28;20048;-74
2023/03/11 20:52:07;;;;;;;2.10;1.20;;;;;;;19.65;45.59;96245.03;10498722;28;20044;-75
2023/03/11 20:57:27;;;;;;;3.05;1.40;;;;;;;19.67;45.61;96255.50;10496799;28;20045;-73
2023/03/11 21:02:46;;;;;;;2.25;1.20;;;;;;;19.67;45.91;96267.09;10483031;28;20048;-74
2023/03/11 21:08:06;;;;;;;2.45;1.33;;;;;;;19.70;45.72;96273.75;10496394;28;20043;-74
2023/03/11 21:13:25;;;;;;;2.90;1.50;;;;;;;19.72;45.75;96279.63;10496137;28;20037;-74
2023/03/11 21:18:45;;;;;;;4.43;1.23;;;;;;;19.76;45.93;96272.44;10510287;28;20044;-75
2023/03/11 21:24:05;;;;;;;2.33;1.10;;;;;;;19.78;45.83;96269.38;10481865;28;20064;-73
2023/03/11 21:29:25;;;;;;;1.35;0.90;;;;;;;19.79;45.71;96277.13;10510828;28;20049;-74
2023/03/11 21:34:44;;;;;;;2.10;1.35;;;;;;;19.83;45.83;96274.56;10495686;28;20048;-74
2023/03/11 21:40:06;;;;;;;2.03;1.00;;;;;;;19.86;45.73;96271.19;10495598;28;20534;-75
2023/03/11 21:45:26;;;;;;;2.72;1.30;;;;;;;19.89;45.79;96278.59;10481572;28;20183;-73
2023/03/11 21:50:47;;;;;;;1.35;1.15;;;;;;;19.91;45.83;96279.84;10475830;28;20102;-72
2023/03/11 21:56:07;;;;;;;1.63;1.08;;;;;;;19.94;45.71;96284.56;10510277;28;20066;-72
2023/03/11 22:01:27;;;;;;;3.38;1.23;;;;;;;19.98;45.69;96281.19;10481215;28;20036;-72
2023/03/11 22:06:46;;;;;;;1.67;1.00;;;;;;;20.01;45.58;96280.50;10510177;28;20044;-72
2023/03/11 22:12:05;;;;;;;2.35;1.20;;;;;;;20.04;45.59;96280.63;10495313;28;20048;-72
2023/03/11 22:17:25;;;;;;;2.03;1.33;;;;;;;20.07;45.63;96281.84;10444532;28;20450;-72
2023/03/11 22:22:45;;;;;;;1.70;0.90;;;;;;;20.10;45.36;96275.78;10493841;28;20047;-74
2023/03/11 22:28:04;;;;;;;2.42;1.10;;;;;;;20.13;45.57;96275.06;10510951;28;20477;-72
2023/03/11 22:33:24;;;;;;;1.45;1.08;;;;;;;20.17;45.65;96281.41;10517304;28;20036;-74
2023/03/11 22:38:44;;;;;;;1.55;0.90;;;;;;;20.19;45.68;96284.56;10501973;28;20041;-73
2023/03/11 22:44:04;;;;;;;1.65;1.02;;;;;;;20.21;45.63;96285.00;10517121;28;20044;-73
2023/03/11 22:49:23;;;;;;;2.08;1.20;;;;;;;20.22;45.68;96283.88;10495114;28;20044;-73
2023/03/11 22:54:42;;;;;;;1.13;0.88;;;;;;;20.23;45.81;96281.94;10511116;28;20047;-73
2023/03/11 23:00:05;;;;;;;2.80;1.20;;;;;;;20.24;45.75;96295.13;10501172;28;20041;-73
2023/03/11 23:05:25;;;;;;;3.15;1.17;;;;;;;20.25;45.59;96285.91;10487236;28;20110;-73
2023/03/11 23:10:46;;;;;;;1.23;0.95;;;;;;;20.25;45.47;96285.91;10487079;28;20041;-73
2023/03/11 23:16:09;;;;;;;2.65;1.10;;;;;;;20.24;45.60;96284.31;10500630;28;20052;-73
2023/03/11 23:21:30;;;;;;;3.95;1.30;;;;;;;20.25;45.42;96291.31;10500277;28;20049;-73
2023/03/11 23:26:50;;;;;;;1.30;1.02;;;;;;;20.25;45.29;96299.41;10500147;28;20045;-74
2023/03/11 23:32:10;;;;;;;1.20;1.10;;;;;;;20.25;45.25;96321.06;10499848;28;20416;-73
2023/03/11 23:37:29;;;;;;;2.45;0.90;;;;;;;20.26;45.24;96311.81;10499789;28;20044;-73
2023/03/11 23:42:49;;;;;;;1.85;1.00;;;;;;;20.26;45.26;96306.41;10498592;28;20484;-73
2023/03/11 23:48:09;;;;;;;2.47;1.10;;;;;;;20.25;45.21;96304.06;10514435;28;20072;-73
2023/03/11 23:53:30;;;;;;;1.05;0.88;;;;;;;20.25;45.06;96299.41;10488248;28;20049;-73
2023/03/11 23:58:49;;;;;;;1.60;1.10;;;;;;;20.25;44.93;96307.53;10484854;28;20044;-73
